Time;durP1;ratioP1;P1;durP2;ratioP2;P2;SDS_P1;SDS_P2;PMS_P1;PMS_P2;Temp;Humidity;BMP_temperature;BMP_pressure;BME280_temperature;BME280_humidity;BME280_pressure;Samples;Min_cycle;Max_cycle;Signal;HPM_P1;HPM_P2
2023/09/13 00:00:40;;;;;;;;;;;;;;;14.59;100.00;100031.25;5053964;28;855;-56
2023/09/13 00:03:07;;;;;;;;;;;;;;;14.62;100.00;100035.22;5054007;28;1926;-57
2023/09/13 00:05:34;;;;;;;;;;;;;;;14.61;100.00;100036.41;5053991;28;831;-57
2023/09/13 00:08:01;;;;;;;;;;;;;;;14.59;100.00;100041.59;5053738;28;836;-56
2023/09/13 00:10:28;;;;;;;;;;;;;;;14.62;100.00;100038.78;5053719;28;840;-57
2023/09/13 00:12:55;;;;;;;;;;;;;;;14.67;100.00;100038.28;5053909;28;1086;-56
2023/09/13 00:15:22;;;;;;;;;;;;;;;14.71;100.00;100035.44;5053663;28;863;-56
2023/09/13 00:17:49;;;;;;;;;;;;;;;14.73;100.00;100040.59;5053858;28;836;-57
2023/09/13 00:20:16;;;;;;;;;;;;;;;14.72;100.00;100034.22;5053514;28;832;-57
2023/09/13 00:22:45;;;;;;;;;;;;;;;14.70;100.00;100036.63;5052212;28;1972;-57
2023/09/13 00:25:12;;;;;;;;;;;;;;;14.67;100.00;100038.28;5053553;28;875;-57
2023/09/13 00:27:39;;;;;;;;;;;;;;;14.66;100.00;100030.38;5053741;28;1256;-57
2023/09/13 00:30:08;;;;;;;;;;;;;;;14.63;100.00;100033.97;5053431;28;844;-57
2023/09/13 00:32:34;;;;;;;;;;;;;;;14.59;100.00;100030.47;5053398;28;813;-57
2023/09/13 00:35:00;;;;;;;;;;;;;;;14.55;100.00;100026.94;5053485;28;871;-56
2023/09/13 00:37:28;;;;;;;;;;;;;;;14.49;100.00;100032.22;5053517;28;852;-57
2023/09/13 00:39:55;;;;;;;;;;;;;;;14.45;100.00;100031.50;5053373;28;915;-56
2023/09/13 00:42:21;;;;;;;;;;;;;;;14.41;100.00;100025.22;5053230;28;1949;-57
2023/09/13 00:44:48;;;;;;;;;;;;;;;14.36;100.00;100025.66;5051994;28;1282;-56
2023/09/13 00:47:16;;;;;;;;;;;;;;;14.33;100.00;100027.31;5053292;28;954;-57
2023/09/13 00:49:44;;;;;;;;;;;;;;;14.32;100.00;100027.72;5053078;28;889;-56
2023/09/13 00:52:11;;;;;;;;;;;;;;;14.30;100.00;100030.94;5053003;28;828;-57
2023/09/13 00:54:38;;;;;;;;;;;;;;;14.23;100.00;100023.50;5052848;28;824;-57
2023/09/13 00:57:06;;;;;;;;;;;;;;;14.21;100.00;100025.13;5052778;28;894;-57
2023/09/13 00:59:33;;;;;;;;;;;;;;;14.19;100.00;100025.56;5052908;28;808;-57
2023/09/13 01:02:00;;;;;;;;;;;;;;;14.18;100.00;100020.41;5052796;28;824;-57
2023/09/13 01:04:27;;;;;;;;;;;;;;;14.18;100.00;100021.19;5052794;28;1943;-56
2023/09/13 01:06:54;;;;;;;;;;;;;;;14.18;100.00;100017.63;5052606;28;935;-57
2023/09/13 01:09:22;;;;;;;;;;;;;;;14.16;100.00;100015.28;5052883;28;952;-56
2023/09/13 01:11:50;;;;;;;;;;;;;;;14.17;100.00;100013.31;5052927;28;1005;-56
2023/09/13 01:14:18;;;;;;;;;;;;;;;14.17;100.00;100018.88;5052311;28;1338;-56
2023/09/13 01:16:54;;;;;;;;;;;;;;;14.15;100.00;100016.50;5052437;28;848;-57
2023/09/13 01:19:53;;;;;;;;;;;;;;;14.09;100.00;100016.19;5052454;28;875;-57
2023/09/13 01:22:35;;;;;;;;;;;;;;;14.11;100.00;100009.44;5008428;28;1914;-57
2023/09/13 01:25:17;;;;;;;;;;;;;;;14.15;100.00;100021.28;5052590;28;820;-57
2023/09/13 01:28:10;;;;;;;;;;;;;;;14.14;100.00;100014.91;5052289;28;891;-57
2023/09/13 01:30:37;;;;;;;;;;;;;;;14.14;100.00;100020.47;5052173;28;844;-56
2023/09/13 01:33:04;;;;;;;;;;;;;;;14.12;100.00;100011.75;5052248;28;871;-56
2023/09/13 01:35:31;;;;;;;;;;;;;;;14.07;100.00;100013.03;5052112;28;801;-57
2023/09/13 01:37:58;;;;;;;;;;;;;;;14.03;100.00;100009.53;5052063;28;816;-56
2023/09/13 01:40:26;;;;;;;;;;;;;;;14.05;100.00;100001.56;5052051;28;879;-57
2023/09/13 01:42:55;;;;;;;;;;;;;;;14.05;100.00;100007.09;5052180;28;1890;-57
2023/09/13 01:45:23;;;;;;;;;;;;;;;14.03;100.00;100009.53;5052220;28;828;-57
2023/09/13 01:47:51;;;;;;;;;;;;;;;14.02;100.00;100005.19;5052025;28;874;-57
2023/09/13 01:50:18;;;;;;;;;;;;;;;14.05;100.00;99996.00;5051420;28;880;-57
2023/09/13 01:52:45;;;;;;;;;;;;;;;14.03;100.00;100000.41;5051903;28;819;-57
2023/09/13 01:55:12;;;;;;;;;;;;;;;13.98;100.00;100004.44;5052005;28;919;-57
2023/09/13 01:57:39;;;;;;;;;;;;;;;13.93;100.00;100001.34;5051766;28;840;-57
2023/09/13 02:00:06;;;;;;;;;;;;;;;13.85;100.00;100003.47;5051914;28;882;-57
2023/09/13 02:02:33;;;;;;;;;;;;;;;13.80;100.00;99995.59;5051784;28;1890;-57
2023/09/13 02:05:00;;;;;;;;;;;;;;;13.84;100.00;99991.56;5051672;28;902;-57
2023/09/13 02:07:28;;;;;;;;;;;;;;;13.82;100.00;99990.41;5051934;28;832;-57
2023/09/13 02:09:55;;;;;;;;;;;;;;;13.72;100.00;99989.38;5051635;28;847;-57
2023/09/13 02:12:22;;;;;;;;;;;;;;;13.66;100.00;99994.59;5051931;28;939;-57
2023/09/13 02:14:49;;;;;;;;;;;;;;;13.65;100.00;99993.00;5051474;28;1303;-57
2023/09/13 02:17:16;;;;;;;;;;;;;;;13.67;100.00;99992.59;5051681;28;875;-57
2023/09/13 02:19:47;;;;;;;;;;;;;;;13.65;100.00;99990.25;5051578;28;879;-57
2023/09/13 02:22:14;;;;;;;;;;;;;;;13.65;100.00;99997.78;5051944;28;903;-57
2023/09/13 02:24:41;;;;;;;;;;;;;;;13.66;100.00;99996.59;5051618;28;1898;-57
2023/09/13 02:27:08;;;;;;;;;;;;;;;13.64;100.00;99994.22;5051492;28;896;-57
2023/09/13 02:29:35;;;;;;;;;;;;;;;13.64;100.00;99994.22;5051491;28;887;-57
2023/09/13 02:32:02;;;;;;;;;;;;;;;13.58;100.00;99995.91;5051620;28;860;-57
2023/09/13 02:34:28;;;;;;;;;;;;;;;13.55;100.00;99996.75;5051409;28;857;-57
2023/09/13 02:36:55;;;;;;;;;;;;;;;13.52;100.00;99994.03;5051392;28;887;-57
2023/09/13 02:39:31;;;;;;;;;;;;;;;13.47;100.00;99998.06;5051481;28;879;-57
2023/09/13 02:41:58;;;;;;;;;;;;;;;13.39;100.00;100000.13;5051327;28;871;-57
2023/09/13 02:44:25;;;;;;;;;;;;;;;13.38;100.00;99997.78;5051250;28;1906;-57
2023/09/13 02:46:52;;;;;;;;;;;;;;;13.42;100.00;99993.75;5051288;28;840;-57
2023/09/13 02:49:20;;;;;;;;;;;;;;;13.42;100.00;99998.50;5051538;28;805;-56
2023/09/13 02:51:48;;;;;;;;;;;;;;;13.40;100.00;99996.16;5051436;28;851;-57
2023/09/13 02:54:15;;;;;;;;;;;;;;;13.44;100.00;100004.44;5049938;28;1335;-57
2023/09/13 02:56:42;;;;;;;;;;;;;;;13.44;100.00;99998.88;5051197;28;942;-56
2023/09/13 02:59:10;;;;;;;;;;;;;;;13.50;100.00;99993.66;5051169;28;813;-57
2023/09/13 03:01:37;;;;;;;;;;;;;;;13.58;100.00;99993.13;5052500;28;851;-57
2023/09/13 03:04:04;;;;;;;;;;;;;;;13.67;100.00;99990.59;5054875;28;1941;-57
2023/09/13 03:06:31;;;;;;;;;;;;;;;13.66;100.00;99997.38;5055031;28;855;-57
2023/09/13 03:08:58;;;;;;;;;;;;;;;13.58;100.00;99997.91;5055111;28;884;-56
2023/09/13 03:11:25;;;;;;;;;;;;;;;13.49;100.00;100003.97;5054904;28;1031;-56
2023/09/13 03:13:53;;;;;;;;;;;;;;;13.42;100.00;99998.50;5054586;28;1303;-57
2023/09/13 03:16:21;;;;;;;;;;;;;;;13.42;100.00;99995.72;5055053;28;907;-57
2023/09/13 03:18:48;;;;;;;;;;;;;;;13.47;100.00;99998.84;5054846;28;1230;-57
2023/09/13 03:21:18;;;;;;;;;;;;;;;13.55;100.00;99998.72;5054983;28;813;-57
2023/09/13 03:23:46;;;;;;;;;;;;;;;13.52;100.00;99999.56;5054471;28;1977;-57
2023/09/13 03:26:17;;;;;;;;;;;;;;;13.43;100.00;99997.31;5054621;28;888;-57
2023/09/13 03:28:45;;;;;;;;;;;;;;;13.34;100.00;99997.03;5054702;28;851;-57
2023/09/13 03:31:14;;;;;;;;;;;;;;;13.27;100.00;100004.22;5054495;28;868;-57
2023/09/13 03:33:41;;;;;;;;;;;;;;;13.21;100.00;99999.56;5054541;28;824;-57
2023/09/13 03:36:09;;;;;;;;;;;;;;;13.27;100.00;100000.66;5054436;28;976;-57
2023/09/13 03:38:39;;;;;;;;;;;;;;;13.39;100.00;100004.91;5054421;28;833;-57
2023/09/13 03:41:09;;;;;;;;;;;;;;;13.37;100.00;100001.75;5054243;28;812;-57
2023/09/13 03:43:36;;;;;;;;;;;;;;;13.32;100.00;100005.78;5054265;28;1955;-57
2023/09/13 03:46:04;;;;;;;;;;;;;;;13.31;100.00;99998.66;5054264;28;835;-57
2023/09/13 03:48:31;;;;;;;;;;;;;;;13.28;100.00;100000.28;5054204;28;816;-57
2023/09/13 03:50:58;;;;;;;;;;;;;;;13.31;100.00;100001.41;5054051;28;845;-57
2023/09/13 03:53:26;;;;;;;;;;;;;;;13.31;100.00;100006.97;5054064;28;926;-57
2023/09/13 03:55:53;;;;;;;;;;;;;;;13.36;100.00;100006.53;5054258;28;796;-56
2023/09/13 03:58:20;;;;;;;;;;;;;;;13.38;100.00;100008.91;5054467;28;879;-57
2023/09/13 04:00:47;;;;;;;;;;;;;;;13.39;100.00;100004.91;5054342;28;1202;-57
2023/09/13 04:03:16;;;;;;;;;;;;;;;13.36;100.00;100009.31;5053944;28;1944;-57
2023/09/13 04:05:42;;;;;;;;;;;;;;;13.33;100.00;100009.34;5054071;28;918;-57
2023/09/13 04:08:09;;;;;;;;;;;;;;;13.29;100.00;100012.16;5054054;28;852;-57
2023/09/13 04:10:36;;;;;;;;;;;;;;;13.27;100.00;100014.53;5054001;28;895;-57
2023/09/13 04:13:03;;;;;;;;;;;;;;;13.29;100.00;100014.94;5053704;28;1248;-57
2023/09/13 04:15:31;;;;;;;;;;;;;;;13.38;100.00;100012.44;5054019;28;824;-57
2023/09/13 04:17:58;;;;;;;;;;;;;;;13.53;100.00;100015.00;5053819;28;878;-57
2023/09/13 04:20:25;;;;;;;;;;;;;;;13.65;100.00;100020.78;5053752;28;828;-57
2023/09/13 04:22:52;;;;;;;;;;;;;;;13.74;100.00;100020.28;5053631;28;1910;-57
2023/09/13 04:25:20;;;;;;;;;;;;;;;13.81;100.00;100022.19;5053741;28;879;-57
2023/09/13 04:27:47;;;;;;;;;;;;;;;13.85;100.00;100032.03;5053875;28;911;-57
2023/09/13 04:30:15;;;;;;;;;;;;;;;13.89;100.00;100021.66;5053389;28;832;-57
2023/09/13 04:32:47;;;;;;;;;;;;;;;13.96;100.00;100020.75;5053410;28;875;-57
2023/09/13 04:35:15;;;;;;;;;;;;;;;14.02;100.00;100016.31;5053270;28;938;-57
2023/09/13 04:37:42;;;;;;;;;;;;;;;14.10;100.00;100022.50;5053326;28;812;-56
2023/09/13 04:40:09;;;;;;;;;;;;;;;14.16;100.00;100025.63;5053441;28;866;-57
2023/09/13 04:42:36;;;;;;;;;;;;;;;14.24;100.00;100015.97;5053143;28;1886;-57
2023/09/13 04:45:03;;;;;;;;;;;;;;;14.30;100.00;100025.38;5053131;28;883;-56
2023/09/13 04:47:31;;;;;;;;;;;;;;;14.36;100.00;100028.44;5053144;28;828;-57
2023/09/13 04:49:58;;;;;;;;;;;;;;;14.48;100.00;100034.19;5053134;28;875;-56
2023/09/13 04:52:25;;;;;;;;;;;;;;;14.49;100.00;100035.78;5052885;28;908;-56
2023/09/13 04:54:52;;;;;;;;;;;;;;;14.54;100.00;100031.72;5052990;28;843;-57
2023/09/13 04:57:19;;;;;;;;;;;;;;;14.59;100.00;100033.25;5052838;28;852;-56
2023/09/13 04:59:50;;;;;;;;;;;;;;;14.63;100.00;100034.75;5051547;28;1378;-57
2023/09/13 05:02:17;;;;;;;;;;;;;;;14.71;100.00;100027.09;5052729;28;915;-57
2023/09/13 05:04:44;;;;;;;;;;;;;;;14.82;100.00;100036.00;5052770;28;1894;-57
2023/09/13 05:07:11;;;;;;;;;;;;;;;14.90;100.00;100036.69;5051343;28;1368;-57
2023/09/13 05:09:38;;;;;;;;;;;;;;;15.04;100.00;100030.03;5052610;28;1069;-57
2023/09/13 05:12:06;;;;;;;;;;;;;;;15.13;100.00;100035.03;5052758;28;1082;-57
2023/09/13 05:14:37;;;;;;;;;;;;;;;15.29;100.00;100049.03;5052523;28;1362;-57
2023/09/13 05:17:04;;;;;;;;;;;;;;;15.45;100.00;100042.75;5052665;28;840;-57
2023/09/13 05:19:30;;;;;;;;;;;;;;;15.57;100.00;100041.28;5052299;28;968;-57
2023/09/13 05:21:57;;;;;;;;;;;;;;;15.74;100.00;100042.16;5052395;28;871;-57
2023/09/13 05:24:24;;;;;;;;;;;;;;;15.88;100.00;100039.06;5051496;28;1917;-57
2023/09/13 05:26:51;;;;;;;;;;;;;;;16.10;100.00;100039.34;5052430;28;809;-57
2023/09/13 05:29:19;;;;;;;;;;;;;;;16.31;100.00;100049.19;5052228;28;804;-57
2023/09/13 05:31:46;;;;;;;;;;;;;;;16.56;100.00;100045.78;5052216;28;918;-57
2023/09/13 05:34:13;;;;;;;;;;;;;;;16.80;100.00;100048.34;5052107;28;840;-57
2023/09/13 05:36:41;;;;;;;;;;;;;;;17.01;100.00;100044.25;5052133;28;957;-57
2023/09/13 05:39:08;;;;;;;;;;;;;;;17.18;100.00;100044.97;5052200;28;1295;-57
2023/09/13 05:41:37;;;;;;;;;;;;;;;17.39;100.00;100049.94;5052255;28;1308;-57
2023/09/13 05:44:07;;;;;;;;;;;;;;;17.53;100.00;100059.91;5050834;28;2056;-57
2023/09/13 05:46:34;;;;;;;;;;;;;;;17.75;100.00;100057.25;5052024;28;863;-57
2023/09/13 05:49:01;;;;;;;;;;;;;;;18.09;100.00;100053.03;5051901;28;859;-57
2023/09/13 05:51:30;;;;;;;;;;;;;;;18.36;100.00;100050.56;5052238;28;874;-57
2023/09/13 05:53:57;;;;;;;;;;;;;;;18.65;100.00;100043.22;5051968;28;860;-56
2023/09/13 05:56:24;;;;;;;;;;;;;;;18.87;100.00;100046.88;5051790;28;844;-57
2023/09/13 05:58:50;;;;;;;;;;;;;;;19.11;100.00;100040.84;5051896;28;907;-56
2023/09/13 06:01:17;;;;;;;;;;;;;;;19.36;100.00;100048.31;5051770;28;824;-56
2023/09/13 06:03:44;;;;;;;;;;;;;;;19.48;100.00;100050.28;5051701;28;1949;-56
2023/09/13 06:06:12;;;;;;;;;;;;;;;19.63;100.00;100047.72;5051763;28;835;-57
2023/09/13 06:08:39;;;;;;;;;;;;;;;19.79;100.00;100041.13;5050403;28;1298;-56
2023/09/13 06:11:06;;;;;;;;;;;;;;;19.93;100.00;100056.63;5051694;28;1120;-56
2023/09/13 06:13:33;;;;;;;;;;;;;;;20.06;100.00;100048.88;5051572;28;1272;-56
2023/09/13 06:16:01;;;;;;;;;;;;;;;20.22;100.00;100053.44;5051676;28;868;-56
2023/09/13 06:18:28;;;;;;;;;;;;;;;20.33;100.00;100061.41;5051558;28;867;-56
2023/09/13 06:20:55;;;;;;;;;;;;;;;20.47;100.00;100062.88;5033924;28;824;-57
2023/09/13 06:23:36;;;;;;;;;;;;;;;20.64;100.00;100066.19;5050254;28;1961;-56
2023/09/13 06:26:03;;;;;;;;;;;;;;;20.76;100.00;100059.63;5033902;28;1413;-56
2023/09/13 06:28:31;;;;;;;;;;;;;;;20.99;100.00;100061.06;5051883;28;942;-57
2023/09/13 06:30:59;;;;;;;;;;;;;;;21.19;100.00;100069.81;5050378;28;1275;-56
2023/09/13 06:33:26;;;;;;;;;;;;;;;21.58;100.00;100069.31;5051508;28;931;-57
2023/09/13 06:35:56;;;;;;;;;;;;;;;21.98;100.00;100066.22;5053237;28;849;-56
2023/09/13 06:38:23;;;;;;;;;;;;;;;22.09;100.00;100071.31;5055537;28;856;-56
2023/09/13 06:40:51;;;;;;;;;;;;;;;22.31;100.00;100075.94;5054164;28;2193;-56
2023/09/13 07:14:18;;;;;;;;;;;;;;;26.18;100.00;100079.47;5034677;22;1820;-56
2023/09/13 07:16:45;;;;;;;;;;;;;;;26.44;100.00;100085.03;5015077;28;1002;-56
2023/09/13 07:19:12;;;;;;;;;;;;;;;26.76;100.00;100087.78;5015326;28;1223;-56
2023/09/13 07:21:38;;;;;;;;;;;;;;;27.20;100.00;100088.44;5015216;28;1305;-56
2023/09/13 07:24:06;;;;;;;;;;;;;;;27.39;100.00;100085.94;5014909;28;1990;-56
2023/09/13 07:26:32;;;;;;;;;;;;;;;27.30;100.00;100089.78;5015303;28;1290;-56
2023/09/13 07:29:00;;;;;;;;;;;;;;;27.34;100.00;100086.72;5014847;28;859;-56
2023/09/13 07:31:27;;;;;;;;;;;;;;;27.40;100.00;100093.19;5015050;28;1250;-56
2023/09/13 07:33:54;;;;;;;;;;;;;;;27.67;100.00;100094.50;5014933;28;1203;-56
2023/09/13 07:36:23;;;;;;;;;;;;;;;27.70;98.06;100099.91;5014757;28;935;-56
2023/09/13 07:38:49;;;;;;;;;;;;;;;28.01;97.81;100097.38;5014779;28;876;-56
2023/09/13 07:41:16;;;;;;;;;;;;;;;28.33;95.92;100094.22;5014904;28;932;-56
2023/09/13 07:43:42;;;;;;;;;;;;;;;28.55;94.55;100088.53;5014958;28;1949;-56
2023/09/13 07:46:09;;;;;;;;;;;;;;;28.75;88.93;100086.66;5014662;28;1265;-56
2023/09/13 07:48:35;;;;;;;;;;;;;;;29.11;86.89;100094.00;5014035;28;804;-57
2023/09/13 07:51:05;;;;;;;;;;;;;;;29.11;85.48;100088.31;5014456;28;816;-57
2023/09/13 07:53:31;;;;;;;;;;;;;;;29.11;84.71;100084.69;5014716;28;887;-57
2023/09/13 07:55:59;;;;;;;;;;;;;;;29.16;83.86;100077.44;5014482;28;896;-58
2023/09/13 07:58:26;;;;;;;;;;;;;;;29.05;85.04;100089.63;5014578;28;914;-58
2023/09/13 08:00:52;;;;;;;;;;;;;;;29.23;84.34;100088.25;5014499;28;900;-57
2023/09/13 08:03:20;;;;;;;;;;;;;;;29.06;84.05;100085.47;5014473;28;1894;-58
2023/09/13 08:05:47;;;;;;;;;;;;;;;29.00;83.59;100079.06;5014385;28;855;-58
2023/09/13 08:08:22;;;;;;;;;;;;;;;29.10;82.61;100077.44;5014377;28;1023;-58
2023/09/13 08:10:50;;;;;;;;;;;;;;;29.12;83.66;100083.38;5014146;28;820;-58
2023/09/13 08:13:17;;;;;;;;;;;;;;;29.03;81.90;100075.91;5014137;28;1239;-58
2023/09/13 08:15:45;;;;;;;;;;;;;;;28.93;82.08;100083.19;5014061;28;824;-58
2023/09/13 08:18:12;;;;;;;;;;;;;;;28.98;81.68;100084.50;5012779;28;1224;-58
2023/09/13 08:20:39;;;;;;;;;;;;;;;28.82;80.11;100080.41;5014248;28;837;-58
2023/09/13 08:23:07;;;;;;;;;;;;;;;28.62;81.87;100082.28;5013862;28;1965;-58
2023/09/13 08:25:34;;;;;;;;;;;;;;;28.91;81.58;100078.06;5013892;28;859;-58
2023/09/13 08:28:03;;;;;;;;;;;;;;;29.07;81.57;100079.25;5013960;28;800;-58
2023/09/13 08:30:30;;;;;;;;;;;;;;;29.22;82.02;100073.25;5013733;28;848;-58
2023/09/13 08:32:57;;;;;;;;;;;;;;;29.42;79.99;100077.78;5014040;28;876;-58
2023/09/13 08:35:25;;;;;;;;;;;;;;;29.87;78.69;100065.28;5013667;28;892;-58
2023/09/13 08:37:52;;;;;;;;;;;;;;;29.87;74.32;100068.13;5013650;28;919;-58
2023/09/13 08:40:19;;;;;;;;;;;;;;;29.55;71.65;100056.47;5013532;28;817;-58
2023/09/13 08:42:46;;;;;;;;;;;;;;;29.24;72.37;100056.41;5013596;28;1886;-58
2023/09/13 08:45:13;;;;;;;;;;;;;;;29.25;72.35;100060.03;5013495;28;895;-58
2023/09/13 08:47:43;;;;;;;;;;;;;;;29.01;72.84;100058.59;5013462;28;949;-58
2023/09/13 08:50:11;;;;;;;;;;;;;;;29.33;72.42;100057.41;5013294;28;919;-58
2023/09/13 08:52:40;;;;;;;;;;;;;;;29.47;71.15;100057.03;5013691;28;821;-58
2023/09/13 08:55:09;;;;;;;;;;;;;;;29.27;72.44;100051.75;5013465;28;1318;-58
2023/09/13 08:57:37;;;;;;;;;;;;;;;29.42;70.33;100048.53;5013572;28;862;-58
2023/09/13 09:00:07;;;;;;;;;;;;;;;29.52;69.94;100053.38;5013541;28;891;-58
2023/09/13 09:02:35;;;;;;;;;;;;;;;29.40;68.78;100051.91;5013211;28;935;-58
2023/09/13 09:05:04;;;;;;;;;;;;;;;29.76;68.31;100054.00;5013262;28;981;-58
2023/09/13 09:07:32;;;;;;;;;;;;;;;29.93;63.36;100037.50;5013108;28;926;-58
2023/09/13 09:10:01;;;;;;;;;;;;;;;29.88;60.83;100039.13;5013089;28;824;-58
2023/09/13 09:12:28;;;;;;;;;;;;;;;29.42;61.47;100048.53;5012933;28;997;-57
2023/09/13 09:14:55;;;;;;;;;;;;;;;29.31;61.51;100052.22;5012793;28;1312;-58
2023/09/13 09:17:24;;;;;;;;;;;;;;;29.17;62.30;100037.06;5012955;28;907;-57
2023/09/13 09:19:52;;;;;;;;;;;;;;;29.23;62.24;100043.50;5012807;28;847;-57
2023/09/13 09:22:20;;;;;;;;;;;;;;;29.23;62.96;100039.88;5012936;28;832;-57
2023/09/13 09:24:47;;;;;;;;;;;;;;;29.10;62.55;100041.25;5012737;28;1969;-58
2023/09/13 09:27:14;;;;;;;;;;;;;;;29.00;62.73;100044.91;5012837;28;825;-58
2023/09/13 09:29:39;;;;;;;;;;;;;;;29.09;62.22;100039.69;5012601;28;835;-58
2023/09/13 09:32:08;;;;;;;;;;;;;;;29.09;62.60;100044.59;5012823;28;860;-58
2023/09/13 09:34:37;;;;;;;;;;;;;;;29.05;62.08;100030.63;5012553;28;855;-57
2023/09/13 09:37:06;;;;;;;;;;;;;;;28.62;61.30;100036.03;5012607;28;1263;-58
2023/09/13 09:39:42;;;;;;;;;;;;;;;28.33;62.38;100038.16;5012646;28;1203;-58
2023/09/13 09:42:13;;;;;;;;;;;;;;;28.53;62.53;100034.25;5012482;28;871;-58
2023/09/13 09:44:39;;;;;;;;;;;;;;;28.92;61.86;100030.47;4994901;28;1953;-57
2023/09/13 09:47:05;;;;;;;;;;;;;;;29.15;60.87;100031.13;4994690;28;2254;-57
2023/09/13 09:55:37;;;;;;;;;;;;;;;29.31;59.25;100020.91;5032020;28;634;-58
2023/09/13 09:58:03;;;;;;;;;;;;;;;29.23;60.28;100025.63;5032227;28;833;-58
2023/09/13 10:00:29;;;;;;;;;;;;;;;29.31;60.96;100023.78;5030670;28;1240;-57
2023/09/13 10:02:55;;;;;;;;;;;;;;;29.46;59.86;100020.56;5031807;28;1890;-58
2023/09/13 10:05:21;;;;;;;;;;;;;;;29.64;59.49;100019.91;5031910;28;832;-58
2023/09/13 10:07:51;;;;;;;;;;;;;;;29.48;58.79;100013.03;5031806;28;836;-58
2023/09/13 10:10:33;;;;;;;;;;;;;;;29.49;59.03;100017.44;5031230;28;824;-58
2023/09/13 10:12:59;;;;;;;;;;;;;;;29.56;57.70;100016.06;5035207;28;1223;-58
2023/09/13 10:15:26;;;;;;;;;;;;;;;29.26;57.36;100018.91;5051618;28;808;-58
2023/09/13 10:17:53;;;;;;;;;;;;;;;29.33;57.58;100021.16;5051658;28;911;-58
2023/09/13 10:20:20;;;;;;;;;;;;;;;29.57;57.30;100014.75;5051594;28;809;-58
2023/09/13 10:22:47;;;;;;;;;;;;;;;29.59;56.92;100017.09;5051511;28;1913;-58
2023/09/13 10:25:15;;;;;;;;;;;;;;;29.94;56.78;100010.59;5050650;28;1334;-58
2023/09/13 10:27:43;;;;;;;;;;;;;;;30.03;54.85;100015.94;5051611;28;843;-58
2023/09/13 10:30:12;;;;;;;;;;;;;;;29.83;54.05;100011.47;5051832;28;839;-58
2023/09/13 10:32:45;;;;;;;;;;;;;;;29.61;53.46;100012.41;5051557;28;835;-58
2023/09/13 10:35:12;;;;;;;;;;;;;;;29.42;53.14;100009.44;5051671;28;1234;-58
2023/09/13 10:37:48;;;;;;;;;;;;;;;29.55;53.61;100010.91;5051857;28;1182;-58
2023/09/13 10:43:20;;;;;;;;;;;;;;;29.86;50.74;100001.84;5051163;28;1972;-59
2023/09/13 10:45:48;;;;;;;;;;;;;;;29.88;51.20;100007.03;5051352;28;836;-58
2023/09/13 10:48:16;;;;;;;;;;;;;;;30.11;50.91;100002.63;5051442;28;828;-58
2023/09/13 10:50:41;;;;;;;;;;;;;;;30.35;49.98;100001.09;5051324;28;873;-58
2023/09/13 10:53:09;;;;;;;;;;;;;;;30.55;49.07;100004.75;5051569;28;860;-58
2023/09/13 10:55:37;;;;;;;;;;;;;;;30.64;48.40;99999.44;5051244;28;875;-58
2023/09/13 10:58:04;;;;;;;;;;;;;;;30.61;47.45;99994.78;5051653;28;846;-58
2023/09/13 11:00:32;;;;;;;;;;;;;;;30.68;47.28;99990.56;5051310;28;857;-59
2023/09/13 11:02:59;;;;;;;;;;;;;;;30.61;47.22;99994.78;5051267;28;1893;-58
2023/09/13 11:05:27;;;;;;;;;;;;;;;30.87;47.04;99984.88;5051132;28;915;-58
2023/09/13 11:07:55;;;;;;;;;;;;;;;30.92;46.99;99984.06;5051208;28;816;-58
2023/09/13 11:10:22;;;;;;;;;;;;;;;31.17;45.66;99984.69;5049776;28;1200;-58
2023/09/13 11:12:50;;;;;;;;;;;;;;;31.29;42.70;99991.75;5050889;28;1222;-58
2023/09/13 11:15:21;;;;;;;;;;;;;;;31.02;40.46;99978.69;5051181;28;855;-58
2023/09/13 11:17:48;;;;;;;;;;;;;;;31.02;40.47;99979.47;5051059;28;820;-58
2023/09/13 11:20:38;;;;;;;;;;;;;;;31.46;40.26;99973.63;5051107;28;891;-58
2023/09/13 11:23:09;;;;;;;;;;;;;;;31.43;40.19;99972.63;5052778;28;1905;-58
2023/09/13 11:25:37;;;;;;;;;;;;;;;31.59;39.58;99972.88;5054977;28;1323;-58
2023/09/13 11:28:10;;;;;;;;;;;;;;;31.62;39.16;99969.72;5054905;28;908;-58
2023/09/13 11:30:47;;;;;;;;;;;;;;;32.03;39.24;99971.31;5054655;28;952;-58
2023/09/13 11:33:15;;;;;;;;;;;;;;;32.27;37.04;99963.84;5036701;28;1194;-58
2023/09/13 11:35:44;;;;;;;;;;;;;;;32.64;36.38;99956.31;5054561;28;833;-58
2023/09/13 11:38:12;;;;;;;;;;;;;;;32.79;35.38;99961.44;5054321;28;871;-59
2023/09/13 11:40:45;;;;;;;;;;;;;;;32.73;35.16;99965.22;5054469;28;1242;-59
2023/09/13 11:43:12;;;;;;;;;;;;;;;32.83;35.30;99959.00;5054356;28;1886;-58
2023/09/13 11:45:40;;;;;;;;;;;;;;;33.27;34.65;99957.19;5054372;28;878;-58
2023/09/13 11:48:08;;;;;;;;;;;;;;;33.45;35.33;99957.53;5054332;28;931;-58
2023/09/13 11:50:44;;;;;;;;;;;;;;;33.17;34.68;99959.00;5054163;28;881;-58
2023/09/13 11:53:20;;;;;;;;;;;;;;;33.26;34.36;99963.47;5054190;28;814;-59
2023/09/13 11:55:53;;;;;;;;;;;;;;;33.37;34.43;99957.44;5054323;28;882;-58
2023/09/13 11:58:28;;;;;;;;;;;;;;;33.23;34.29;99956.78;5054044;28;891;-58
2023/09/13 12:00:56;;;;;;;;;;;;;;;33.45;34.42;99952.56;5054039;28;860;-59
2023/09/13 12:03:23;;;;;;;;;;;;;;;33.85;34.19;99951.56;5053910;28;1881;-58
2023/09/13 12:05:50;;;;;;;;;;;;;;;33.65;34.59;99951.03;5053924;28;911;-58
2023/09/13 12:08:29;;;;;;;;;;;;;;;33.29;35.65;99939.47;5053929;28;804;-58
2023/09/13 12:10:57;;;;;;;;;;;;;;;33.17;35.98;99944.69;5053864;28;828;-58
2023/09/13 12:13:43;;;;;;;;;;;;;;;33.46;36.63;99953.34;5053847;28;1225;-58
2023/09/13 12:16:10;;;;;;;;;;;;;;;33.27;36.72;99953.56;5053642;28;866;-58
2023/09/13 12:18:38;;;;;;;;;;;;;;;33.34;35.97;99952.84;5054071;28;875;-58
2023/09/13 12:21:08;;;;;;;;;;;;;;;33.12;35.64;99952.09;5053615;28;858;-58
2023/09/13 12:23:36;;;;;;;;;;;;;;;32.91;36.50;99957.00;5053546;28;1910;-58
2023/09/13 12:26:08;;;;;;;;;;;;;;;32.98;36.77;99956.31;5053563;28;860;-58
2023/09/13 12:28:36;;;;;;;;;;;;;;;32.94;37.08;99950.16;5053471;28;882;-58
2023/09/13 12:31:11;;;;;;;;;;;;;;;33.06;37.32;99951.44;5053863;28;1297;-58
2023/09/13 12:33:43;;;;;;;;;;;;;;;32.96;38.19;99950.38;5053079;28;808;-58
2023/09/13 12:36:11;;;;;;;;;;;;;;;32.84;37.98;99951.94;5053381;28;841;-58
2023/09/13 12:38:44;;;;;;;;;;;;;;;32.82;38.06;99938.22;5053245;28;877;-58
2023/09/13 12:41:11;;;;;;;;;;;;;;;32.55;38.10;99946.84;5052094;28;757;-58
2023/09/13 12:43:39;;;;;;;;;;;;;;;32.08;40.16;99935.38;5053090;28;1889;-58
2023/09/13 12:46:08;;;;;;;;;;;;;;;31.98;40.40;99942.81;5053371;28;1293;-58
2023/09/13 12:48:36;;;;;;;;;;;;;;;31.95;40.27;99939.72;5053515;28;890;-58
2023/09/13 12:51:03;;;;;;;;;;;;;;;31.53;40.69;99933.00;5053114;28;882;-58
2023/09/13 12:53:31;;;;;;;;;;;;;;;31.51;40.66;99936.38;5053161;28;878;-58
2023/09/13 12:55:58;;;;;;;;;;;;;;;31.43;41.16;99941.22;5053002;28;875;-58
2023/09/13 12:58:26;;;;;;;;;;;;;;;31.45;41.38;99938.59;5053079;28;890;-58
2023/09/13 13:00:54;;;;;;;;;;;;;;;31.70;40.99;99930.59;5052929;28;851;-58
2023/09/13 13:03:25;;;;;;;;;;;;;;;31.66;40.34;99940.81;5052889;28;1899;-58
2023/09/13 13:05:55;;;;;;;;;;;;;;;31.76;41.28;99926.88;5052876;28;827;-59
2023/09/13 13:08:42;;;;;;;;;;;;;;;31.68;41.30;99923.88;5052705;28;879;-58
2023/09/13 13:11:09;;;;;;;;;;;;;;;31.75;41.14;99926.13;5052665;28;877;-58
2023/09/13 13:13:36;;;;;;;;;;;;;;;31.87;40.84;99929.50;5052554;28;1392;-58
2023/09/13 13:16:13;;;;;;;;;;;;;;;31.53;40.55;99928.03;5052683;28;871;-58
2023/09/13 13:18:51;;;;;;;;;;;;;;;31.63;41.15;99924.78;5052813;28;871;-58
2023/09/13 13:21:19;;;;;;;;;;;;;;;31.21;42.83;99924.44;5052552;28;816;-58
2023/09/13 13:23:51;;;;;;;;;;;;;;;31.00;43.56;99932.81;5052394;28;1914;-58
2023/09/13 13:26:21;;;;;;;;;;;;;;;30.81;44.12;99927.09;5052466;28;832;-58
2023/09/13 13:28:48;;;;;;;;;;;;;;;30.44;45.21;99920.13;5052292;28;1306;-58
2023/09/13 13:31:19;;;;;;;;;;;;;;;29.97;46.37;99921.19;5052449;28;872;-58
2023/09/13 13:33:46;;;;;;;;;;;;;;;29.82;46.82;99918.75;5052452;28;832;-58
2023/09/13 13:36:13;;;;;;;;;;;;;;;29.66;47.05;99920.47;5052217;28;897;-58
2023/09/13 13:38:40;;;;;;;;;;;;;;;29.54;47.74;99921.88;5052389;28;866;-57